createdAt,value
2022-08-11T00:01:13.091Z,101283.22
2022-08-11T00:03:47.695Z,101276.72
2022-08-11T00:06:23.805Z,101282.38
2022-08-11T00:08:51.941Z,101281.66
2022-08-11T00:11:20.162Z,101291.72
2022-08-11T00:13:49.032Z,101273.91
2022-08-11T00:16:22.089Z,101282.41
2022-08-11T00:18:52.133Z,101284.44
2022-08-11T00:21:32.547Z,101280.38
2022-08-11T00:24:12.177Z,101273.78
2022-08-11T00:26:39.403Z,101281.59
2022-08-11T00:29:10.798Z,101282.81
2022-08-11T00:31:38.587Z,101278.41
2022-08-11T00:34:11.262Z,101282.06
2022-08-11T00:37:01.412Z,101277.63
2022-08-11T00:39:32.188Z,101284.94
2022-08-11T00:42:19.673Z,101289.75
2022-08-11T00:45:03.974Z,101287.34
2022-08-11T00:47:49.305Z,101285.75
2022-08-11T00:50:26.346Z,101286.94
2022-08-11T00:52:53.524Z,101286.13
2022-08-11T00:55:42.365Z,101282.91
2022-08-11T00:58:39.039Z,101290.97
2022-08-11T01:01:15.786Z,101295.81
2022-08-11T01:04:10.985Z,101292.16
2022-08-11T01:06:50.168Z,101285.34
2022-08-11T01:09:51.448Z,101286.94
2022-08-11T01:12:43.242Z,101282.09
2022-08-11T01:15:25.827Z,101290.16
2022-08-11T01:18:46.912Z,101283.69
2022-08-11T01:21:51.576Z,101290.16
2022-08-11T01:24:52.758Z,101277.28
2022-08-11T01:27:28.859Z,101277.66
2022-08-11T01:30:03.911Z,101280.47
2022-08-11T01:32:56.844Z,101279.28
2022-08-11T01:35:37.250Z,101277.25
2022-08-11T01:38:29.115Z,101280.88
2022-08-11T01:41:08.575Z,101282.06
2022-08-11T01:43:54.286Z,101287.66
2022-08-11T01:46:25.693Z,101280.47
2022-08-11T01:50:06.425Z,101279.19
2022-08-11T01:52:07.927Z,101276.00
2022-08-11T01:54:49.026Z,101280.88
2022-08-11T01:57:38.594Z,101288.03
2022-08-11T02:00:19.945Z,101286.00
2022-08-11T02:02:53.985Z,101288.84
2022-08-11T02:06:01.216Z,101281.59
2022-08-11T02:08:50.385Z,101286.81
2022-08-11T02:11:35.471Z,101281.59
2022-08-11T02:14:24.962Z,101278.72
2022-08-11T02:17:30.442Z,101279.53
2022-08-11T02:20:22.883Z,101284.38
2022-08-11T02:23:59.625Z,101284.34
2022-08-11T02:26:22.515Z,101279.47
2022-08-11T02:28:57.721Z,101283.09
2022-08-11T02:32:24.539Z,101287.56
2022-08-11T02:35:04.014Z,101278.69
2022-08-11T02:37:34.061Z,101278.25
2022-08-11T02:40:01.256Z,101284.69
2022-08-11T02:42:36.186Z,101279.34
2022-08-11T02:45:32.988Z,101271.34
2022-08-11T02:48:34.742Z,101274.22
2022-08-11T02:51:21.989Z,101281.03
2022-08-11T02:54:05.599Z,101277.25
2022-08-11T02:57:11.375Z,101269.63
2022-08-11T03:00:07.517Z,101269.97
2022-08-11T03:03:07.552Z,101279.03
2022-08-11T03:05:56.174Z,101277.63
2022-08-11T03:08:41.078Z,101272.81
2022-08-11T03:11:34.115Z,101274.50
2022-08-11T03:14:35.345Z,101283.66
2022-08-11T03:17:24.435Z,101285.38
2022-08-11T03:20:06.324Z,101280.09
2022-08-11T03:22:41.038Z,101273.97
2022-08-11T03:25:31.539Z,101267.72
2022-08-11T03:28:20.195Z,101276.91
2022-08-11T03:31:13.758Z,101271.78
2022-08-11T03:34:12.734Z,101277.84
2022-08-11T03:37:14.912Z,101277.97
2022-08-11T03:39:59.856Z,101268.31
2022-08-11T03:42:30.199Z,101266.75
2022-08-11T03:45:09.389Z,101279.28
2022-08-11T03:47:52.357Z,101276.78
2022-08-11T03:50:48.949Z,101281.88
2022-08-11T03:53:35.734Z,101275.88
2022-08-11T03:56:27.368Z,101268.78
2022-08-11T03:59:25.308Z,101283.09
2022-08-11T04:02:23.703Z,101284.78
2022-08-11T04:05:25.255Z,101273.59
2022-08-11T04:08:14.290Z,101265.59
2022-08-11T04:10:47.419Z,101271.47
2022-08-11T04:13:45.244Z,101281.94
2022-08-11T04:17:00.005Z,101277.88
2022-08-11T04:19:52.805Z,101282.78
2022-08-11T04:22:38.062Z,101277.28
2022-08-11T04:25:26.993Z,101280.38
2022-08-11T04:28:28.931Z,101282.84
2022-08-11T04:31:52.085Z,101285.34
2022-08-11T04:34:32.388Z,101282.38
2022-08-11T04:37:34.775Z,101280.50
2022-08-11T04:40:39.501Z,101277.56
2022-08-11T04:43:27.445Z,101285.88
2022-08-11T04:46:13.732Z,101293.16
2022-08-11T04:49:33.118Z,101288.94
2022-08-11T04:52:47.708Z,101289.59
2022-08-11T04:55:49.057Z,101285.72
2022-08-11T04:58:55.153Z,101282.97
2022-08-11T05:01:44.005Z,101284.13
2022-08-11T05:04:33.158Z,101284.13
2022-08-11T05:07:41.130Z,101288.97
2022-08-11T05:10:42.979Z,101281.78
2022-08-11T05:13:30.682Z,101281.13
2022-08-11T05:16:20.716Z,101286.72
2022-08-11T05:19:08.777Z,101295.81
2022-08-11T05:21:57.321Z,101299.81
2022-08-11T05:24:47.954Z,101286.66
2022-08-11T05:27:35.858Z,101298.53
2022-08-11T05:30:24.772Z,101300.25
2022-08-11T05:33:29.607Z,101302.63
2022-08-11T05:36:12.473Z,101312.44
2022-08-11T05:38:58.848Z,101310.25
2022-08-11T05:41:46.000Z,101311.88
2022-08-11T05:44:37.708Z,101311.66
2022-08-11T05:47:24.110Z,101316.88
2022-08-11T05:50:13.296Z,101310.72
2022-08-11T05:53:04.292Z,101322.75
2022-08-11T05:56:01.677Z,101331.06
2022-08-11T05:58:42.586Z,101315.84
2022-08-11T06:01:14.797Z,101321.16
2022-08-11T06:04:03.809Z,101325.13
2022-08-11T06:06:31.375Z,101317.50
2022-08-11T06:08:59.560Z,101317.41
2022-08-11T06:11:43.059Z,101316.41
2022-08-11T06:14:15.570Z,101320.50
2022-08-11T06:16:43.669Z,101319.94
2022-08-11T06:19:11.527Z,101324.78
2022-08-11T06:21:45.728Z,101324.06
2022-08-11T06:24:14.167Z,101319.22
2022-08-11T06:27:10.815Z,101329.81
2022-08-11T06:29:47.997Z,101320.91
2022-08-11T06:32:16.108Z,101318.56
2022-08-11T06:34:59.738Z,101314.56
2022-08-11T06:37:41.932Z,101319.88
2022-08-11T06:40:09.584Z,101320.13
2022-08-11T06:42:58.662Z,101323.59
2022-08-11T06:45:49.542Z,101315.38
2022-08-11T06:48:20.098Z,101320.03
2022-08-11T06:51:12.454Z,101322.56
2022-08-11T06:54:03.872Z,101321.41
2022-08-11T06:57:12.500Z,101317.66
2022-08-11T07:00:01.570Z,101318.97
2022-08-11T07:02:35.435Z,101319.09
2022-08-11T07:05:08.624Z,101321.16
2022-08-11T07:08:34.197Z,101320.38
2022-08-11T07:11:30.585Z,101327.19
2022-08-11T07:14:18.978Z,101321.56
2022-08-11T07:16:48.742Z,101325.75
2022-08-11T07:19:39.809Z,101327.84
2022-08-11T07:22:26.111Z,101329.44
2022-08-11T07:25:31.210Z,101326.94
2022-08-11T07:28:20.474Z,101327.38
2022-08-11T07:30:51.776Z,101324.56
2022-08-11T07:34:07.859Z,101319.38
2022-08-11T07:36:28.666Z,101321.41
2022-08-11T07:38:59.892Z,101311.00
2022-08-11T07:41:28.799Z,101317.13
2022-08-11T07:44:09.107Z,101311.53
2022-08-11T07:46:58.808Z,101314.75
2022-08-11T07:49:48.373Z,101312.34
2022-08-11T07:52:36.842Z,101307.09
2022-08-11T07:55:10.446Z,101308.72
2022-08-11T07:58:16.273Z,101307.13
2022-08-11T08:01:22.284Z,101305.47
2022-08-11T08:04:09.925Z,101301.38
2022-08-11T08:06:56.995Z,101300.94
2022-08-11T08:09:52.507Z,101299.22
2022-08-11T08:12:43.878Z,101301.34
2022-08-11T08:15:34.167Z,101306.63
2022-08-11T08:18:09.138Z,101296.13
2022-08-11T08:20:59.200Z,101297.72
2022-08-11T08:23:34.357Z,101306.16
2022-08-11T08:26:28.024Z,101300.13
2022-08-11T08:29:16.307Z,101307.44
2022-08-11T08:31:48.139Z,101307.44
2022-08-11T08:34:16.824Z,101307.44
2022-08-11T08:36:49.053Z,101299.31
2022-08-11T08:39:21.805Z,101302.13
2022-08-11T08:41:54.856Z,101295.72
2022-08-11T08:44:41.237Z,101298.94
2022-08-11T08:47:14.519Z,101302.56
2022-08-11T08:49:49.258Z,101305.38
2022-08-11T08:52:30.568Z,101304.88
2022-08-11T08:55:04.903Z,101312.16
2022-08-11T08:57:39.307Z,101305.28
2022-08-11T09:00:08.779Z,101304.34
2022-08-11T09:02:40.108Z,101306.84
2022-08-11T09:05:10.054Z,101306.00
2022-08-11T09:07:40.287Z,101310.81
2022-08-11T09:10:10.231Z,101317.25
2022-08-11T09:12:40.005Z,101307.84
2022-08-11T09:15:10.314Z,101297.84
2022-08-11T09:17:45.638Z,101305.97
2022-08-11T09:20:22.136Z,101291.31
2022-08-11T09:26:18.527Z,101295.63
2022-08-11T09:28:47.217Z,101293.13
2022-08-11T09:31:15.204Z,101283.34
2022-08-11T09:33:43.937Z,101293.72
2022-08-11T09:36:32.341Z,101282.44
2022-08-11T09:39:19.873Z,101294.06
2022-08-11T09:41:55.585Z,101271.31
2022-08-11T09:44:49.552Z,101274.50
2022-08-11T09:47:29.888Z,101276.09
2022-08-11T09:50:01.350Z,101268.72
2022-08-11T09:52:31.195Z,101276.16
2022-08-11T09:54:58.842Z,101271.38
2022-08-11T09:57:44.867Z,101267.75
2022-08-11T10:00:14.388Z,101274.56
2022-08-11T10:02:46.573Z,101270.56
2022-08-11T10:05:37.012Z,101273.19
2022-08-11T10:08:05.733Z,101270.75
2022-08-11T10:10:36.599Z,101267.78
2022-08-11T10:13:44.033Z,101265.72
2022-08-11T10:15:59.731Z,101258.59
2022-08-11T10:18:42.342Z,101250.72
2022-08-11T10:21:14.767Z,101261.16
2022-08-11T10:24:05.947Z,101246.84
2022-08-11T10:26:53.622Z,101260.34
2022-08-11T10:29:48.811Z,101249.09
2022-08-11T10:32:57.694Z,101243.66
2022-08-11T10:35:33.014Z,101244.16
2022-08-11T10:38:07.728Z,101233.75
2022-08-11T10:40:41.066Z,101240.53
2022-08-11T10:43:13.983Z,101230.78
2022-08-11T10:46:03.517Z,101236.00
2022-08-11T10:48:35.173Z,101219.38
2022-08-11T10:51:14.854Z,101225.88
2022-08-11T10:54:03.280Z,101218.66
2022-08-11T10:56:52.396Z,101222.06
2022-08-11T10:59:20.578Z,101209.88
2022-08-11T11:01:47.973Z,101220.84
2022-08-11T11:04:18.559Z,101217.56
2022-08-11T11:07:06.154Z,101213.47
2022-08-11T11:09:37.972Z,101210.09
2022-08-11T11:12:43.105Z,101203.81
2022-08-11T11:15:30.043Z,101207.31
2022-08-11T11:18:07.006Z,101213.91
2022-08-11T11:20:47.956Z,101204.97
2022-08-11T11:23:24.123Z,101191.59
2022-08-11T11:26:15.511Z,101178.28
2022-08-11T11:29:04.612Z,101174.88
2022-08-11T11:31:58.514Z,101177.91
2022-08-11T11:34:59.400Z,101176.50
2022-08-11T11:37:26.913Z,101176.31
2022-08-11T11:39:56.734Z,101180.31
2022-08-11T11:42:23.919Z,101177.22
2022-08-11T11:44:55.362Z,101198.78
2022-08-11T11:47:23.828Z,101179.75
2022-08-11T11:49:51.484Z,101170.84
2022-08-11T11:52:20.641Z,101175.19
2022-08-11T11:54:50.857Z,101174.16
2022-08-11T11:57:40.477Z,101162.00
2022-08-11T12:00:33.281Z,101161.13
2022-08-11T12:03:08.397Z,101164.13
2022-08-11T12:05:36.432Z,101162.13
2022-08-11T12:08:13.067Z,101166.97
2022-08-11T12:10:47.383Z,101161.50
2022-08-11T12:13:36.629Z,101159.28
2022-08-11T12:16:31.428Z,101170.66
2022-08-11T12:18:54.063Z,101133.97
2022-08-11T12:21:21.689Z,101126.75
2022-08-11T12:24:08.534Z,101147.81
2022-08-11T12:27:16.681Z,101144.41
2022-08-11T12:29:36.239Z,101142.28
2022-08-11T12:32:07.833Z,101124.97
2022-08-11T12:34:35.547Z,101130.88
2022-08-11T12:37:05.709Z,101131.72
2022-08-11T12:40:15.743Z,101134.22
2022-08-11T12:43:08.261Z,101126.34
2022-08-11T12:45:54.580Z,101116.31
2022-08-11T12:48:59.795Z,101111.63
2022-08-11T12:52:13.865Z,101099.09
2022-08-11T12:54:44.839Z,101103.19
2022-08-11T12:57:50.029Z,101115.56
2022-08-11T13:00:37.367Z,101110.53
2022-08-11T13:03:26.330Z,101110.16
2022-08-11T13:05:56.683Z,101099.22
2022-08-11T13:08:25.143Z,101096.97
2022-08-11T13:11:13.231Z,101111.09
2022-08-11T13:13:54.168Z,101105.31
2022-08-11T13:16:54.113Z,101109.75
2022-08-11T13:19:22.131Z,101099.16
2022-08-11T13:21:50.253Z,101096.63
2022-08-11T13:24:18.524Z,101096.97
2022-08-11T13:26:49.727Z,101102.22
2022-08-11T13:29:19.676Z,101105.09
2022-08-11T13:31:47.611Z,101102.94
2022-08-11T13:34:16.725Z,101090.63
2022-08-11T13:36:44.783Z,101094.19
2022-08-11T13:39:12.846Z,101081.22
2022-08-11T13:41:42.344Z,101080.69
2022-08-11T13:44:17.437Z,101075.38
2022-08-11T13:46:47.005Z,101072.59
2022-08-11T13:49:17.083Z,101071.06
2022-08-11T13:51:44.579Z,101069.84
2022-08-11T13:54:21.246Z,101070.19
2022-08-11T13:56:52.342Z,101077.03
2022-08-11T13:59:24.148Z,101075.53
2022-08-11T14:02:21.462Z,101086.41
2022-08-11T14:04:57.345Z,101081.47
2022-08-11T14:07:27.802Z,101077.31
2022-08-11T14:09:59.438Z,101075.47
2022-08-11T14:12:49.046Z,101070.50
2022-08-11T14:15:20.905Z,101050.81
2022-08-11T14:17:55.102Z,101048.75
2022-08-11T14:20:39.631Z,101056.66
2022-08-11T14:23:10.963Z,101050.59
2022-08-11T14:26:02.296Z,101055.94
2022-08-11T14:28:36.546Z,101051.84
2022-08-11T14:31:08.456Z,101043.19
2022-08-11T14:34:00.851Z,101045.94
2022-08-11T14:36:26.637Z,101052.03
2022-08-11T14:38:54.617Z,101038.25
2022-08-11T14:42:10.830Z,101040.44
2022-08-11T14:44:49.087Z,101032.28
2022-08-11T14:47:24.549Z,101034.16
2022-08-11T14:50:09.639Z,101032.63
2022-08-11T14:52:57.213Z,101022.44
2022-08-11T14:55:46.207Z,101011.69
2022-08-11T14:58:17.285Z,101015.00
2022-08-11T15:00:45.197Z,101007.38
2022-08-11T15:03:14.338Z,101003.00
2022-08-11T15:05:55.723Z,101000.88
2022-08-11T15:08:54.714Z,101006.34
2022-08-11T15:11:43.177Z,101000.19
2022-08-11T15:14:11.472Z,100988.25
2022-08-11T15:17:00.925Z,100982.22
2022-08-11T15:19:40.282Z,101003.28
2022-08-11T15:22:29.150Z,100997.66
2022-08-11T15:24:58.993Z,100992.66
2022-08-11T15:27:48.427Z,100994.09
2022-08-11T15:30:34.802Z,100984.22
2022-08-11T15:33:24.209Z,100992.16
2022-08-11T15:36:11.678Z,100985.41
2022-08-11T15:38:55.006Z,100992.88
2022-08-11T15:41:54.528Z,100993.25
2022-08-11T15:45:03.239Z,100983.03
2022-08-11T15:47:38.322Z,100972.41
2022-08-11T15:50:11.154Z,100977.06
2022-08-11T15:52:46.985Z,100977.78
2022-08-11T15:55:20.207Z,100980.75
2022-08-11T15:58:08.271Z,100979.09
2022-08-11T16:00:58.904Z,100974.47
2022-08-11T16:04:08.024Z,100967.47
2022-08-11T16:06:49.493Z,100969.88
2022-08-11T16:09:46.030Z,100973.13
2022-08-11T16:12:23.139Z,100972.25
2022-08-11T16:15:13.003Z,100965.88
2022-08-11T16:17:50.123Z,100956.31
2022-08-11T16:20:20.871Z,100967.13
2022-08-11T16:23:00.419Z,100970.19
2022-08-11T16:27:06.986Z,100965.00
2022-08-11T16:28:22.565Z,100963.97
2022-08-11T16:30:51.069Z,100958.03
2022-08-11T16:33:48.792Z,100958.22
2022-08-11T16:36:26.929Z,100966.22
2022-08-11T16:38:55.501Z,100964.09
2022-08-11T16:41:44.734Z,100955.44
2022-08-11T16:44:37.000Z,100946.66
2022-08-11T16:47:10.958Z,100951.13
2022-08-11T16:49:52.229Z,100955.13
2022-08-11T16:52:21.935Z,100948.00
2022-08-11T16:54:49.430Z,100945.50
2022-08-11T16:57:39.411Z,100946.88
2022-08-11T17:00:12.403Z,100943.44
2022-08-11T17:03:11.493Z,100939.78
2022-08-11T17:06:19.968Z,100940.44
2022-08-11T17:09:07.853Z,100945.88
2022-08-11T17:11:59.691Z,100941.19
2022-08-11T17:14:36.199Z,100935.66
2022-08-11T17:17:12.987Z,100934.44
2022-08-11T17:20:40.090Z,100935.91
2022-08-11T17:22:53.089Z,100942.41
2022-08-11T17:25:20.974Z,100935.91
2022-08-11T17:27:48.892Z,100949.69
2022-08-11T17:30:16.315Z,100950.81
2022-08-11T17:33:06.796Z,100946.34
2022-08-11T17:35:38.919Z,100936.69
2022-08-11T17:38:11.217Z,100943.25
2022-08-11T17:41:01.578Z,100948.94
2022-08-11T17:43:48.822Z,100943.47
2022-08-11T17:46:35.664Z,100941.06
2022-08-11T17:49:04.317Z,100943.13
2022-08-11T17:51:50.292Z,100940.84
2022-08-11T17:54:36.317Z,100944.00
2022-08-11T17:57:22.873Z,100946.06
2022-08-11T17:59:56.039Z,100957.38
2022-08-11T18:02:51.942Z,100954.25
2022-08-11T18:05:21.910Z,100960.41
2022-08-11T18:08:09.318Z,100957.56
2022-08-11T18:10:55.774Z,100963.50
2022-08-11T18:13:43.260Z,100960.66
2022-08-11T18:16:29.156Z,100956.94
2022-08-11T18:19:15.591Z,100958.34
2022-08-11T18:22:14.959Z,100971.84
2022-08-11T18:25:16.215Z,100972.38
2022-08-11T18:28:06.856Z,100963.13
2022-08-11T18:31:03.690Z,100961.91
2022-08-11T18:34:08.452Z,100963.66
2022-08-11T18:36:58.151Z,100964.91
2022-08-11T18:39:54.628Z,100967.38
2022-08-11T18:42:43.779Z,100972.00
2022-08-11T18:45:39.945Z,100972.53
2022-08-11T18:48:40.155Z,100974.16
2022-08-11T18:51:31.488Z,100978.84
2022-08-11T18:54:28.178Z,100976.53
2022-08-11T18:57:16.827Z,100974.84
2022-08-11T19:00:04.369Z,100973.28
2022-08-11T19:02:51.429Z,100976.44
2022-08-11T19:06:32.010Z,100973.88
2022-08-11T19:08:52.395Z,100980.81
2022-08-11T19:11:42.767Z,100977.44
2022-08-11T19:14:31.628Z,100979.72
2022-08-11T19:17:43.996Z,100986.72
2022-08-11T19:20:31.555Z,100986.22
2022-08-11T19:23:17.729Z,100985.41
2022-08-11T19:26:05.050Z,100986.50
2022-08-11T19:28:52.865Z,100987.50
2022-08-11T19:31:44.501Z,100987.84
2022-08-11T19:34:41.401Z,100992.06
2022-08-11T19:37:28.776Z,100991.09
2022-08-11T19:40:20.070Z,100990.22
2022-08-11T19:43:11.313Z,100991.47
2022-08-11T19:46:12.715Z,100984.28
2022-08-11T19:48:59.146Z,101000.28
2022-08-11T19:51:46.208Z,101008.16
2022-08-11T19:54:32.979Z,101011.06
2022-08-11T19:57:19.726Z,101011.63
2022-08-11T20:00:05.604Z,101014.31
2022-08-11T20:02:51.678Z,101011.00
2022-08-11T20:05:37.483Z,101008.22
2022-08-11T20:08:42.619Z,101012.25
2022-08-11T20:11:29.800Z,101014.13
2022-08-11T20:14:16.399Z,101014.81
2022-08-11T20:17:02.443Z,101016.19
2022-08-11T20:19:55.514Z,101021.72
2022-08-11T20:22:46.878Z,101020.63
2022-08-11T20:25:34.762Z,101028.47
2022-08-11T20:28:22.796Z,101023.28
2022-08-11T20:31:09.702Z,101021.38
2022-08-11T20:33:56.119Z,101018.22
2022-08-11T20:36:42.119Z,101025.47
2022-08-11T20:39:29.314Z,101025.03
2022-08-11T20:42:16.491Z,101022.03
2022-08-11T20:45:02.943Z,101023.16
2022-08-11T20:47:58.985Z,101014.41
2022-08-11T20:50:55.593Z,101013.84
2022-08-11T20:53:43.130Z,101020.09
2022-08-11T20:56:30.032Z,101016.88
2022-08-11T20:59:18.804Z,101016.06
2022-08-11T21:02:10.117Z,101022.28
2022-08-11T21:05:02.926Z,101021.28
2022-08-11T21:07:58.975Z,101017.72
2022-08-11T21:10:50.562Z,101021.78
2022-08-11T21:13:42.040Z,101027.72
2022-08-11T21:16:28.840Z,101020.50
2022-08-11T21:20:06.654Z,101021.31
2022-08-11T21:22:38.891Z,101021.44
2022-08-11T21:25:29.903Z,101021.38
2022-08-11T21:28:19.996Z,101017.97
2022-08-11T21:31:08.053Z,101021.75
2022-08-11T21:33:54.461Z,101022.13
2022-08-11T21:36:40.738Z,101019.06
2022-08-11T21:39:30.196Z,101019.69
2022-08-11T21:42:19.087Z,101022.38
2022-08-11T21:45:10.037Z,101024.91
2022-08-11T21:48:01.000Z,101022.66
2022-08-11T21:50:48.514Z,101023.63
2022-08-11T21:53:38.275Z,101020.72
2022-08-11T21:56:25.519Z,101022.13
2022-08-11T21:59:15.166Z,101022.59
2022-08-11T22:02:02.983Z,101021.84
2022-08-11T22:04:52.447Z,101023.41
2022-08-11T22:07:40.756Z,101022.22
2022-08-11T22:10:40.835Z,101025.75
2022-08-11T22:13:35.875Z,101026.41
2022-08-11T22:16:21.869Z,101025.22
2022-08-11T22:19:08.863Z,101030.38
2022-08-11T22:22:04.284Z,101028.56
2022-08-11T22:24:53.469Z,101033.38
2022-08-11T22:27:40.085Z,101027.75
2022-08-11T22:30:27.977Z,101034.47
2022-08-11T22:33:21.782Z,101035.28
2022-08-11T22:36:14.007Z,101032.59
2022-08-11T22:39:04.088Z,101038.34
2022-08-11T22:41:50.160Z,101029.59
2022-08-11T22:44:36.383Z,101028.94
2022-08-11T22:47:22.848Z,101031.97
2022-08-11T22:50:16.735Z,101030.88
2022-08-11T22:53:03.795Z,101028.78
2022-08-11T22:55:50.442Z,101029.41
2022-08-11T22:58:38.480Z,101034.25
2022-08-11T23:01:24.349Z,101033.41
2022-08-11T23:04:15.252Z,101037.56
2022-08-11T23:07:03.159Z,101035.63
2022-08-11T23:09:49.795Z,101033.63
2022-08-11T23:12:35.650Z,101039.84
2022-08-11T23:15:22.346Z,101031.38
2022-08-11T23:18:08.338Z,101035.84
2022-08-11T23:20:54.784Z,101040.03
2022-08-11T23:23:42.569Z,101034.63
2022-08-11T23:26:30.090Z,101032.19
2022-08-11T23:29:16.667Z,101038.81
2022-08-11T23:32:04.527Z,101036.28
2022-08-11T23:35:04.162Z,101031.94
2022-08-11T23:38:01.715Z,101029.91
2022-08-11T23:40:49.616Z,101031.00
2022-08-11T23:43:39.994Z,101030.50
2022-08-11T23:46:25.632Z,101030.59
2022-08-11T23:49:16.141Z,101028.38
2022-08-11T23:52:02.714Z,101030.69
2022-08-11T23:54:48.535Z,101026.34
2022-08-11T23:57:35.108Z,101032.84
